createdAt,value
2022-08-27T00:00:43.403Z,7.90
2022-08-27T00:03:10.321Z,9.35
2022-08-27T00:05:37.299Z,9.32
2022-08-27T00:08:05.852Z,7.57
2022-08-27T00:10:33.206Z,8.23
2022-08-27T00:13:00.355Z,8.13
2022-08-27T00:15:28.004Z,8.32
2022-08-27T00:17:54.375Z,7.35
2022-08-27T00:20:23.474Z,8.80
2022-08-27T00:22:49.830Z,7.68
2022-08-27T00:25:16.306Z,7.32
2022-08-27T00:27:42.839Z,7.78
2022-08-27T00:30:13.399Z,7.38
2022-08-27T00:32:40.650Z,8.30
2022-08-27T00:35:08.346Z,7.47
2022-08-27T00:37:35.626Z,7.15
2022-08-27T00:40:02.387Z,8.85
2022-08-27T00:42:31.010Z,7.65
2022-08-27T00:44:57.781Z,7.95
2022-08-27T00:47:27.795Z,8.35
2022-08-27T00:50:03.919Z,8.60
2022-08-27T00:52:35.095Z,7.00
2022-08-27T00:55:13.862Z,7.40
2022-08-27T00:57:43.115Z,7.90
2022-08-27T01:00:13.914Z,8.57
2022-08-27T01:02:41.971Z,8.13
2022-08-27T01:05:12.785Z,6.70
2022-08-27T01:07:43.081Z,7.20
2022-08-27T01:10:15.597Z,6.50
2022-08-27T01:12:42.918Z,7.95
2022-08-27T01:15:16.956Z,8.18
2022-08-27T01:17:47.884Z,7.20
2022-08-27T01:20:29.533Z,7.57
2022-08-27T01:23:17.282Z,7.30
2022-08-27T01:25:44.847Z,9.40
2022-08-27T01:28:13.313Z,8.20
2022-08-27T01:30:40.264Z,7.53
2022-08-27T01:33:12.130Z,8.05
2022-08-27T01:35:38.930Z,7.35
2022-08-27T01:38:09.499Z,8.30
2022-08-27T01:40:45.699Z,6.80
2022-08-27T01:43:12.364Z,7.47
2022-08-27T01:45:44.716Z,7.70
2022-08-27T01:48:11.273Z,8.38
2022-08-27T01:50:40.378Z,8.10
2022-08-27T01:53:13.080Z,8.93
2022-08-27T01:55:40.841Z,7.72
2022-08-27T01:58:14.130Z,8.35
2022-08-27T02:00:44.044Z,8.77
2022-08-27T02:03:11.976Z,8.32
2022-08-27T02:05:44.630Z,8.32
2022-08-27T02:08:13.371Z,8.25
2022-08-27T02:10:40.441Z,7.85
2022-08-27T02:13:08.097Z,8.15
2022-08-27T02:15:36.451Z,8.55
2022-08-27T02:18:04.560Z,6.82
2022-08-27T02:20:31.259Z,7.93
2022-08-27T02:22:58.253Z,7.88
2022-08-27T02:25:25.050Z,8.90
2022-08-27T02:27:51.478Z,10.13
2022-08-27T02:30:21.728Z,6.90
2022-08-27T02:32:49.412Z,6.85
2022-08-27T02:35:17.660Z,8.88
2022-08-27T02:37:45.558Z,8.10
2022-08-27T02:40:16.296Z,8.40
2022-08-27T02:42:44.275Z,9.07
2022-08-27T02:45:11.696Z,8.13
2022-08-27T02:47:38.099Z,9.18
2022-08-27T02:50:05.739Z,9.32
2022-08-27T02:52:32.310Z,8.20
2022-08-27T02:54:59.697Z,9.52
2022-08-27T02:57:27.096Z,9.40
2022-08-27T02:59:54.027Z,8.85
2022-08-27T03:02:21.440Z,8.82
2022-08-27T03:04:49.462Z,9.77
2022-08-27T03:07:18.888Z,8.45
2022-08-27T03:09:45.693Z,7.60
2022-08-27T03:12:12.730Z,8.30
2022-08-27T03:14:39.267Z,9.80
2022-08-27T03:17:24.104Z,8.30
2022-08-27T03:19:50.490Z,7.47
2022-08-27T03:22:16.836Z,8.60
2022-08-27T03:24:43.253Z,9.52
2022-08-27T03:27:09.696Z,8.68
2022-08-27T03:29:36.583Z,8.63
2022-08-27T03:32:06.795Z,8.85
2022-08-27T03:34:33.772Z,9.15
2022-08-27T03:37:01.279Z,9.98
2022-08-27T03:39:27.784Z,11.50
2022-08-27T03:41:55.697Z,9.20
2022-08-27T03:44:23.936Z,12.02
2022-08-27T03:46:52.006Z,9.68
2022-08-27T03:49:20.574Z,8.68
2022-08-27T03:51:52.683Z,9.38
2022-08-27T03:54:19.652Z,8.60
2022-08-27T03:56:46.736Z,10.48
2022-08-27T03:59:13.148Z,10.15
2022-08-27T04:01:39.569Z,9.20
2022-08-27T04:04:06.689Z,9.35
2022-08-27T04:06:36.761Z,9.15
2022-08-27T04:09:03.979Z,8.45
2022-08-27T04:11:30.822Z,9.77
2022-08-27T04:13:57.500Z,9.48
2022-08-27T04:16:25.560Z,9.95
2022-08-27T04:18:52.065Z,9.13
2022-08-27T04:21:18.899Z,10.50
2022-08-27T04:23:45.307Z,10.88
2022-08-27T04:26:12.178Z,10.10
2022-08-27T04:28:39.117Z,8.82
2022-08-27T04:31:07.363Z,8.52
2022-08-27T04:33:39.474Z,9.50
2022-08-27T04:36:10.045Z,9.50
2022-08-27T04:38:37.620Z,9.50
2022-08-27T04:41:26.412Z,10.00
2022-08-27T04:43:56.094Z,10.63
2022-08-27T04:46:25.289Z,9.18
2022-08-27T04:48:53.203Z,8.55
2022-08-27T04:51:20.803Z,9.13
2022-08-27T04:53:48.148Z,9.90
2022-08-27T04:56:16.471Z,9.38
2022-08-27T04:58:44.095Z,11.05
2022-08-27T05:01:16.661Z,10.90
2022-08-27T05:03:43.197Z,9.85
2022-08-27T05:06:09.659Z,9.52
2022-08-27T05:08:36.117Z,9.60
2022-08-27T05:11:02.823Z,8.75
2022-08-27T05:13:29.712Z,9.23
2022-08-27T05:16:05.442Z,9.98
2022-08-27T05:18:36.382Z,9.77
2022-08-27T05:21:11.922Z,9.95
2022-08-27T05:23:39.099Z,8.77
2022-08-27T05:26:07.707Z,10.15
2022-08-27T05:28:34.145Z,9.80
2022-08-27T05:31:09.851Z,10.57
2022-08-27T05:33:38.390Z,8.40
2022-08-27T05:36:06.121Z,9.73
2022-08-27T05:38:33.413Z,9.45
2022-08-27T05:41:11.796Z,9.25
2022-08-27T05:43:41.212Z,8.75
2022-08-27T05:46:14.372Z,10.13
2022-08-27T05:48:41.942Z,8.88
2022-08-27T05:51:26.177Z,9.25
2022-08-27T05:54:04.516Z,8.40
2022-08-27T05:56:36.023Z,8.30
2022-08-27T05:59:21.560Z,8.85
2022-08-27T06:01:50.706Z,9.38
2022-08-27T06:04:20.214Z,8.55
2022-08-27T06:06:48.104Z,8.05
2022-08-27T06:09:19.565Z,9.88
2022-08-27T06:11:46.346Z,10.30
2022-08-27T06:14:13.103Z,8.65
2022-08-27T06:16:40.821Z,9.48
2022-08-27T06:19:08.903Z,8.30
2022-08-27T06:21:35.365Z,9.55
2022-08-27T06:24:02.012Z,8.57
2022-08-27T06:26:28.501Z,8.77
2022-08-27T06:28:55.414Z,8.85
2022-08-27T06:31:27.615Z,10.40
2022-08-27T06:34:03.001Z,9.50
2022-08-27T06:36:37.168Z,9.10
2022-08-27T06:39:04.427Z,8.82
2022-08-27T06:41:30.905Z,9.68
2022-08-27T06:43:58.295Z,8.50
2022-08-27T06:46:27.509Z,8.50
2022-08-27T06:48:56.587Z,9.05
2022-08-27T06:51:32.466Z,8.60
2022-08-27T06:54:01.913Z,9.40
2022-08-27T06:56:28.722Z,8.25
2022-08-27T06:59:02.360Z,8.60
2022-08-27T07:01:31.858Z,9.25
2022-08-27T07:04:00.203Z,8.48
2022-08-27T07:06:29.322Z,7.47
2022-08-27T07:08:56.887Z,8.43
2022-08-27T07:11:23.517Z,7.28
2022-08-27T07:13:50.769Z,7.68
2022-08-27T07:16:22.692Z,8.18
2022-08-27T07:18:54.606Z,8.02
2022-08-27T07:21:21.843Z,7.78
2022-08-27T07:23:50.202Z,8.10
2022-08-27T07:26:17.483Z,7.22
2022-08-27T07:28:46.424Z,7.13
2022-08-27T07:31:16.857Z,7.15
2022-08-27T07:33:46.115Z,6.50
2022-08-27T07:36:21.020Z,6.50
2022-08-27T07:38:56.579Z,6.97
2022-08-27T07:41:31.994Z,5.53
2022-08-27T07:44:18.828Z,6.93
2022-08-27T07:46:48.746Z,6.78
2022-08-27T07:49:19.539Z,6.07
2022-08-27T07:51:46.589Z,5.50
2022-08-27T07:54:13.177Z,5.68
2022-08-27T07:56:40.275Z,5.38
2022-08-27T07:59:07.176Z,5.75
2022-08-27T08:01:34.235Z,5.72
2022-08-27T08:04:00.715Z,6.95
2022-08-27T08:06:27.107Z,5.57
2022-08-27T08:08:53.688Z,5.35
2022-08-27T08:11:20.377Z,5.30
2022-08-27T08:13:47.484Z,5.15
2022-08-27T08:16:14.440Z,5.68
2022-08-27T08:18:41.516Z,5.70
2022-08-27T08:21:10.918Z,4.88
2022-08-27T08:23:38.228Z,5.85
2022-08-27T08:26:05.477Z,6.88
2022-08-27T08:28:32.254Z,6.00
2022-08-27T08:30:59.232Z,5.40
2022-08-27T08:33:27.425Z,5.50
2022-08-27T08:35:54.306Z,6.03
2022-08-27T08:38:20.988Z,6.93
2022-08-27T08:40:54.432Z,7.18
2022-08-27T08:43:35.710Z,5.35
2022-08-27T08:46:17.308Z,5.20
2022-08-27T08:48:48.968Z,5.88
2022-08-27T08:51:40.575Z,5.85
2022-08-27T08:54:10.156Z,5.82
2022-08-27T08:56:59.644Z,5.00
2022-08-27T08:59:42.447Z,5.25
2022-08-27T09:02:14.431Z,5.00
2022-08-27T09:04:44.316Z,4.88
2022-08-27T09:07:26.415Z,4.88
2022-08-27T09:10:16.129Z,5.28
2022-08-27T09:12:42.551Z,5.18
2022-08-27T09:15:24.697Z,5.05
2022-08-27T09:17:51.218Z,5.97
2022-08-27T09:20:25.475Z,5.60
2022-08-27T09:23:12.157Z,4.70
2022-08-27T09:25:41.928Z,6.20
2022-08-27T09:28:33.954Z,7.00
2022-08-27T09:31:05.093Z,6.35
2022-08-27T09:33:42.073Z,5.40
2022-08-27T09:36:21.682Z,5.75
2022-08-27T09:38:57.931Z,4.68
2022-08-27T09:41:29.376Z,5.45
2022-08-27T09:44:01.784Z,5.80
2022-08-27T09:46:28.966Z,5.60
2022-08-27T09:48:55.575Z,6.45
2022-08-27T09:51:25.615Z,6.68
2022-08-27T09:53:55.920Z,6.20
2022-08-27T09:56:34.601Z,6.30
2022-08-27T09:59:08.631Z,5.60
2022-08-27T10:01:49.158Z,6.03
2022-08-27T10:04:23.580Z,5.50
2022-08-27T10:06:51.644Z,9.35
2022-08-27T10:09:25.300Z,7.35
2022-08-27T10:12:11.666Z,5.88
2022-08-27T10:14:47.263Z,5.03
2022-08-27T10:17:51.237Z,5.15
2022-08-27T10:20:44.547Z,5.28
2022-08-27T10:23:42.102Z,5.05
2022-08-27T10:26:29.716Z,5.55
2022-08-27T10:29:23.463Z,5.57
2022-08-27T10:32:11.076Z,5.55
2022-08-27T10:35:01.852Z,5.38
2022-08-27T10:38:05.792Z,5.18
2022-08-27T10:40:38.470Z,5.32
2022-08-27T10:43:14.902Z,5.30
2022-08-27T10:45:57.105Z,5.15
2022-08-27T10:48:40.576Z,5.03
2022-08-27T10:51:26.220Z,5.97
2022-08-27T10:54:11.804Z,5.53
2022-08-27T10:56:44.657Z,5.43
2022-08-27T11:02:31.072Z,5.53
2022-08-27T11:05:03.523Z,5.30
2022-08-27T11:07:35.701Z,4.85
2022-08-27T11:10:08.763Z,6.13
2022-08-27T11:12:38.896Z,5.85
2022-08-27T11:15:12.876Z,5.78
2022-08-27T11:17:50.395Z,6.32
2022-08-27T11:20:21.147Z,5.72
2022-08-27T11:22:59.991Z,5.72
2022-08-27T11:25:34.417Z,6.50
2022-08-27T11:28:03.574Z,7.40
2022-08-27T11:30:57.964Z,6.80
2022-08-27T11:33:39.258Z,7.53
2022-08-27T11:36:31.995Z,6.07
2022-08-27T11:39:34.579Z,5.85
2022-08-27T11:42:24.003Z,6.15
2022-08-27T11:44:56.922Z,6.38
2022-08-27T11:50:01.774Z,6.15
2022-08-27T11:52:33.012Z,5.63
2022-08-27T11:55:28.450Z,6.40
2022-08-27T11:58:17.992Z,6.32
2022-08-27T12:00:46.072Z,6.18
2022-08-27T12:03:18.589Z,5.75
2022-08-27T12:05:49.422Z,6.07
2022-08-27T12:08:21.936Z,7.60
2022-08-27T12:11:24.820Z,6.53
2022-08-27T12:14:04.738Z,6.15
2022-08-27T12:16:48.312Z,6.28
2022-08-27T12:19:28.804Z,5.10
2022-08-27T12:22:57.031Z,5.93
2022-08-27T12:25:24.208Z,5.20
2022-08-27T12:28:04.049Z,5.32
2022-08-27T12:30:34.846Z,5.38
2022-08-27T12:33:40.947Z,6.43
2022-08-27T12:36:18.281Z,5.18
2022-08-27T12:38:59.133Z,6.07
2022-08-27T12:41:44.472Z,4.78
2022-08-27T12:44:27.044Z,5.50
2022-08-27T12:46:59.878Z,5.78
2022-08-27T12:52:33.137Z,5.28
2022-08-27T12:55:20.968Z,5.78
2022-08-27T12:58:17.939Z,5.28
2022-08-27T13:01:15.301Z,5.78
2022-08-27T13:03:47.236Z,5.60
2022-08-27T13:06:17.361Z,5.20
2022-08-27T13:08:43.909Z,5.80
2022-08-27T13:11:23.363Z,5.47
2022-08-27T13:13:51.413Z,5.57
2022-08-27T13:16:20.647Z,5.85
2022-08-27T13:18:49.487Z,5.90
2022-08-27T13:21:23.868Z,5.85
2022-08-27T13:24:00.248Z,5.13
2022-08-27T13:26:34.014Z,4.97
2022-08-27T13:29:03.703Z,4.80
2022-08-27T13:31:31.844Z,5.28
2022-08-27T13:33:58.763Z,5.47
2022-08-27T13:36:27.572Z,5.78
2022-08-27T13:38:56.476Z,5.40
2022-08-27T13:41:30.303Z,5.22
2022-08-27T13:43:59.589Z,5.78
2022-08-27T13:46:29.771Z,5.40
2022-08-27T13:48:58.947Z,6.10
2022-08-27T13:51:29.393Z,5.93
2022-08-27T13:54:15.675Z,8.05
2022-08-27T13:56:55.976Z,6.57
2022-08-27T13:59:27.890Z,5.45
2022-08-27T14:02:09.531Z,5.90
2022-08-27T14:04:35.985Z,5.70
2022-08-27T14:07:13.364Z,5.90
2022-08-27T14:09:54.085Z,4.95
2022-08-27T14:12:32.840Z,4.78
2022-08-27T14:15:15.375Z,4.68
2022-08-27T14:17:45.804Z,4.90
2022-08-27T14:20:13.247Z,4.95
2022-08-27T14:22:39.823Z,4.32
2022-08-27T14:25:06.620Z,4.18
2022-08-27T14:27:36.403Z,4.25
2022-08-27T14:30:05.731Z,4.50
2022-08-27T14:32:33.281Z,3.97
2022-08-27T14:34:59.673Z,4.03
2022-08-27T14:37:26.261Z,4.40
2022-08-27T14:39:52.852Z,4.47
2022-08-27T14:42:19.948Z,4.35
2022-08-27T14:44:46.453Z,3.70
2022-08-27T14:47:15.929Z,3.75
2022-08-27T14:49:45.310Z,4.45
2022-08-27T14:52:15.525Z,4.50
2022-08-27T14:54:42.978Z,4.35
2022-08-27T14:57:10.565Z,4.68
2022-08-27T14:59:38.410Z,4.93
2022-08-27T15:02:09.718Z,5.30
2022-08-27T15:04:36.341Z,4.93
2022-08-27T15:07:03.623Z,4.80
2022-08-27T15:09:30.752Z,5.68
2022-08-27T15:11:58.237Z,4.70
2022-08-27T15:14:33.105Z,4.38
2022-08-27T15:17:00.147Z,4.85
2022-08-27T15:19:30.265Z,4.72
2022-08-27T15:22:03.844Z,4.63
2022-08-27T15:24:39.144Z,4.40
2022-08-27T15:27:05.757Z,4.68
2022-08-27T15:29:33.509Z,4.88
2022-08-27T15:31:59.970Z,4.55
2022-08-27T15:34:26.405Z,4.60
2022-08-27T15:36:53.799Z,4.82
2022-08-27T15:39:20.344Z,5.05
2022-08-27T15:42:05.363Z,3.88
2022-08-27T15:44:32.660Z,4.60
2022-08-27T15:46:59.153Z,4.20
2022-08-27T15:49:25.542Z,5.53
2022-08-27T15:51:52.086Z,4.63
2022-08-27T15:54:18.788Z,5.10
2022-08-27T15:56:45.275Z,4.63
2022-08-27T15:59:11.667Z,4.95
2022-08-27T16:01:38.539Z,4.10
2022-08-27T16:04:06.763Z,4.55
2022-08-27T16:06:34.729Z,4.03
2022-08-27T16:09:01.225Z,4.25
2022-08-27T16:11:27.750Z,4.63
2022-08-27T16:13:55.730Z,4.90
2022-08-27T16:16:26.010Z,4.55
2022-08-27T16:18:52.662Z,4.25
2022-08-27T16:21:19.853Z,7.10
2022-08-27T16:23:46.442Z,5.00
2022-08-27T16:26:12.944Z,4.35
2022-08-27T16:28:39.328Z,4.40
2022-08-27T16:31:06.155Z,4.22
2022-08-27T16:33:39.614Z,3.92
2022-08-27T16:36:06.389Z,4.70
2022-08-27T16:38:32.951Z,4.05
2022-08-27T16:40:59.981Z,4.07
2022-08-27T16:43:28.411Z,4.00
2022-08-27T16:45:56.969Z,3.80
2022-08-27T16:48:42.612Z,3.88
2022-08-27T16:51:17.801Z,4.25
2022-08-27T16:53:44.812Z,3.58
2022-08-27T16:56:11.182Z,4.25
2022-08-27T16:58:40.393Z,4.07
2022-08-27T17:01:09.454Z,3.85
2022-08-27T17:04:08.502Z,3.45
2022-08-27T17:06:38.560Z,3.88
2022-08-27T17:09:05.989Z,3.25
2022-08-27T17:11:35.077Z,3.72
2022-08-27T17:14:02.470Z,3.03
2022-08-27T17:16:31.776Z,3.17
2022-08-27T17:18:59.543Z,2.85
2022-08-27T17:21:29.896Z,2.58
2022-08-27T17:23:59.281Z,3.90
2022-08-27T17:26:26.205Z,3.45
2022-08-27T17:28:53.133Z,4.60
2022-08-27T17:31:27.961Z,4.57
2022-08-27T17:33:59.196Z,5.20
2022-08-27T17:36:28.389Z,5.47
2022-08-27T17:38:55.177Z,5.22
2022-08-27T17:41:36.560Z,5.63
2022-08-27T17:44:06.639Z,4.90
2022-08-27T17:46:33.177Z,5.38
2022-08-27T17:48:59.759Z,5.38
2022-08-27T17:51:27.411Z,5.15
2022-08-27T17:54:00.471Z,5.75
2022-08-27T17:56:29.061Z,5.38
2022-08-27T17:58:55.871Z,6.80
2022-08-27T18:01:28.869Z,4.90
2022-08-27T18:03:57.020Z,6.18
2022-08-27T18:06:24.987Z,4.80
2022-08-27T18:08:51.499Z,4.82
2022-08-27T18:11:18.628Z,4.80
2022-08-27T18:13:52.127Z,4.53
2022-08-27T18:16:18.821Z,4.03
2022-08-27T18:18:45.264Z,4.72
2022-08-27T18:21:11.893Z,3.50
2022-08-27T18:23:40.414Z,3.88
2022-08-27T18:26:13.299Z,3.42
2022-08-27T18:28:42.224Z,4.25
2022-08-27T18:31:09.851Z,3.50
2022-08-27T18:33:37.189Z,3.05
2022-08-27T18:36:04.528Z,3.13
2022-08-27T18:38:31.559Z,3.80
2022-08-27T18:41:00.261Z,3.38
2022-08-27T18:43:35.082Z,3.90
2022-08-27T18:46:06.186Z,3.55
2022-08-27T18:48:32.787Z,3.28
2022-08-27T18:51:01.569Z,3.58
2022-08-27T18:53:32.079Z,3.95
2022-08-27T18:55:58.953Z,4.50
2022-08-27T18:58:26.504Z,3.80
2022-08-27T19:00:59.016Z,3.80
2022-08-27T19:03:29.668Z,3.70
2022-08-27T19:05:56.323Z,3.63
2022-08-27T19:08:24.284Z,3.75
2022-08-27T19:10:50.773Z,3.90
2022-08-27T19:13:17.240Z,3.47
2022-08-27T19:15:49.816Z,4.28
2022-08-27T19:18:17.628Z,4.18
2022-08-27T19:20:44.472Z,4.07
2022-08-27T19:23:10.996Z,3.40
2022-08-27T19:25:37.434Z,3.70
2022-08-27T19:28:04.078Z,3.47
2022-08-27T19:30:31.688Z,3.88
2022-08-27T19:32:58.349Z,3.38
2022-08-27T19:35:25.149Z,3.55
2022-08-27T19:37:53.239Z,3.17
2022-08-27T19:40:21.854Z,3.55
2022-08-27T19:42:49.047Z,3.08
2022-08-27T19:45:15.420Z,3.33
2022-08-27T19:47:42.143Z,3.65
2022-08-27T19:50:09.188Z,4.30
2022-08-27T19:52:35.637Z,3.15
2022-08-27T19:55:17.340Z,3.50
2022-08-27T19:57:44.402Z,3.08
2022-08-27T20:00:13.816Z,3.22
2022-08-27T20:02:40.266Z,3.75
2022-08-27T20:05:18.018Z,3.60
2022-08-27T20:07:47.042Z,3.30
2022-08-27T20:10:13.701Z,2.97
2022-08-27T20:12:42.955Z,3.05
2022-08-27T20:15:09.759Z,3.03
2022-08-27T20:17:36.234Z,3.05
2022-08-27T20:20:04.786Z,3.45
2022-08-27T20:22:31.264Z,3.10
2022-08-27T20:24:58.237Z,3.38
2022-08-27T20:27:24.697Z,3.38
2022-08-27T20:29:51.283Z,3.35
2022-08-27T20:32:19.356Z,3.65
2022-08-27T20:34:45.789Z,4.45
2022-08-27T20:37:12.460Z,3.40
2022-08-27T20:39:38.905Z,3.47
2022-08-27T20:42:06.375Z,3.85
2022-08-27T20:44:33.084Z,3.40
2022-08-27T20:47:01.585Z,3.35
2022-08-27T20:49:28.827Z,3.47
2022-08-27T20:52:03.156Z,3.40
2022-08-27T20:54:31.653Z,2.92
2022-08-27T20:56:58.537Z,3.20
2022-08-27T20:59:44.667Z,3.67
2022-08-27T21:02:13.731Z,2.88
2022-08-27T21:04:43.729Z,3.47
2022-08-27T21:07:10.768Z,3.60
2022-08-27T21:09:41.690Z,2.70
2022-08-27T21:12:23.408Z,2.92
2022-08-27T21:14:49.966Z,3.40
2022-08-27T21:17:21.503Z,3.00
2022-08-27T21:19:47.904Z,3.15
2022-08-27T21:22:14.320Z,3.33
2022-08-27T21:24:40.712Z,3.40
2022-08-27T21:27:07.161Z,3.30
2022-08-27T21:29:33.936Z,2.50
2022-08-27T21:32:00.327Z,3.53
2022-08-27T21:34:28.090Z,3.00
2022-08-27T21:36:54.638Z,2.80
2022-08-27T21:39:21.069Z,2.97
2022-08-27T21:41:47.488Z,3.13
2022-08-27T21:44:14.678Z,3.10
2022-08-27T21:46:41.200Z,3.13
2022-08-27T21:49:07.721Z,3.33
2022-08-27T21:51:34.125Z,3.20
2022-08-27T21:54:00.509Z,3.10
2022-08-27T21:56:27.648Z,3.45
2022-08-27T21:58:54.296Z,2.90
2022-08-27T22:01:20.753Z,3.65
2022-08-27T22:03:50.585Z,3.20
2022-08-27T22:06:18.014Z,3.47
2022-08-27T22:08:44.550Z,3.35
2022-08-27T22:11:11.525Z,3.50
2022-08-27T22:13:38.278Z,3.15
2022-08-27T22:16:05.227Z,3.15
2022-08-27T22:18:32.082Z,2.88
2022-08-27T22:20:59.324Z,3.15
2022-08-27T22:23:26.760Z,3.20
2022-08-27T22:25:53.150Z,3.55
2022-08-27T22:28:19.604Z,3.25
2022-08-27T22:30:46.265Z,3.42
2022-08-27T22:33:13.446Z,3.40
2022-08-27T22:35:39.996Z,2.88
2022-08-27T22:38:06.525Z,3.70
2022-08-27T22:40:34.033Z,3.55
2022-08-27T22:43:01.152Z,3.15
2022-08-27T22:45:27.907Z,2.97
2022-08-27T22:47:54.849Z,3.28
2022-08-27T22:50:22.255Z,3.20
2022-08-27T22:52:49.500Z,3.33
2022-08-27T22:55:19.370Z,3.17
2022-08-27T22:57:51.209Z,3.60
2022-08-27T23:00:27.866Z,3.08
2022-08-27T23:02:54.579Z,3.28
2022-08-27T23:05:22.026Z,3.53
2022-08-27T23:07:49.049Z,2.92
2022-08-27T23:10:18.256Z,3.58
2022-08-27T23:12:46.512Z,2.90
2022-08-27T23:15:15.128Z,4.30
2022-08-27T23:17:41.585Z,3.30
2022-08-27T23:20:09.804Z,3.15
2022-08-27T23:22:37.423Z,2.95
2022-08-27T23:25:24.288Z,4.18
2022-08-27T23:27:50.681Z,3.10
2022-08-27T23:30:18.251Z,3.47
2022-08-27T23:32:46.436Z,3.90
2022-08-27T23:35:16.953Z,3.80
2022-08-27T23:37:43.605Z,2.83
2022-08-27T23:40:12.693Z,3.10
2022-08-27T23:42:44.623Z,3.35
2022-08-27T23:45:17.755Z,3.25
2022-08-27T23:47:44.204Z,3.42
2022-08-27T23:50:11.873Z,3.28
2022-08-27T23:52:40.072Z,3.08
2022-08-27T23:55:07.984Z,3.05
2022-08-27T23:57:34.477Z,3.17
